Time;durP1;ratioP1;P1;durP2;ratioP2;P2;SDS_P1;SDS_P2;PMS_P1;PMS_P2;Temp;Humidity;BMP_temperature;BMP_pressure;BME280_temperature;BME280_humidity;BME280_pressure;Samples;Min_cycle;Max_cycle;Signal;HPM_P1;HPM_P2
2023/01/12 00:02:17;;;;;;;3.38;1.35;;;8.70;70.90;;;4.12;100.00;96142.31;4966069;28;20105;-50
2023/01/12 00:04:44;;;;;;;2.85;1.17;;;8.70;70.90;;;4.03;100.00;96148.84;4968537;28;20038;-52
2023/01/12 00:07:13;;;;;;;3.60;1.30;;;8.70;70.80;;;4.00;100.00;96151.88;4967417;28;20521;-50
2023/01/12 00:09:39;;;;;;;6.45;1.38;;;8.70;70.80;;;3.98;100.00;96147.84;4954040;28;20037;-51
2023/01/12 00:12:10;;;;;;;7.53;1.65;;;8.60;70.70;;;3.95;100.00;96146.44;4934674;28;20438;-52
2023/01/12 00:14:40;;;;;;;4.90;1.50;;;8.60;70.70;;;3.95;100.00;96146.44;4954426;28;20564;-54
2023/01/12 00:17:07;;;;;;;8.57;1.45;;;8.60;70.70;;;3.92;100.00;96147.69;4937066;28;20041;-50
2023/01/12 00:19:35;;;;;;;3.35;1.20;;;8.60;70.70;;;3.90;100.00;96144.44;4952155;28;20053;-49
2023/01/12 00:22:07;;;;;;;4.47;1.30;;;8.50;70.60;;;3.88;100.00;96141.19;4970623;28;20026;-51
2023/01/12 00:24:40;;;;;;;4.50;1.25;;;8.50;70.50;;;3.89;100.00;96134.91;4948923;28;20034;-51
2023/01/12 00:27:18;;;;;;;5.82;1.60;;;8.50;70.50;;;3.88;100.00;96143.00;4972312;28;20022;-55
2023/01/12 00:29:44;;;;;;;6.55;1.50;;;8.50;70.50;;;3.87;100.00;96142.22;4942809;28;20043;-52
2023/01/12 00:32:19;;;;;;;5.03;1.10;;;8.50;70.60;;;3.87;100.00;96144.84;4948572;28;20022;-53
2023/01/12 00:34:45;;;;;;;4.40;1.30;;;8.50;70.50;;;3.89;100.00;96134.09;4965514;28;20038;-50
2023/01/12 00:37:12;;;;;;;5.30;1.55;;;8.50;70.60;;;3.93;100.00;96146.66;4944728;28;20026;-49
2023/01/12 00:39:38;;;;;;;3.78;1.00;;;8.50;70.50;;;3.98;100.00;96137.28;4965926;28;20053;-50
2023/01/12 00:47:36;;;;;;;5.45;1.27;;;8.50;70.30;;;3.95;98.68;96143.81;4962302;28;20064;-53
2023/01/12 00:50:02;;;;;;;6.03;1.20;;;8.50;70.30;;;3.95;98.50;96141.19;4958712;28;20458;-51
2023/01/12 00:52:28;;;;;;;3.72;1.02;;;8.50;70.10;;;3.93;98.61;96140.56;4937283;28;20018;-54
2023/01/12 00:54:54;;;;;;;4.68;1.23;;;8.50;70.00;;;3.93;98.30;96135.28;4970231;28;20057;-51
2023/01/12 00:57:19;;;;;;;4.65;1.35;;;8.50;70.00;;;3.90;97.85;96133.88;4946238;28;20038;-57
2023/01/12 00:59:46;;;;;;;5.32;0.95;;;8.50;70.70;;;3.91;97.86;96147.88;4953274;28;20030;-51
2023/01/12 01:02:13;;;;;;;1.88;1.00;;;8.50;69.90;;;3.89;97.63;96140.19;4965374;28;20028;-54
2023/01/12 01:04:39;;;;;;;6.38;1.10;;;8.50;69.70;;;3.84;98.00;96150.53;4952229;28;20022;-53
2023/01/12 01:07:05;;;;;;;6.10;1.08;;;8.50;69.60;;;3.77;97.88;96152.38;4956420;28;20023;-51
2023/01/12 01:09:31;;;;;;;8.75;1.58;;;8.50;69.50;;;3.76;98.08;96152.56;4948654;28;20033;-49
2023/01/12 01:11:57;;;;;;;3.17;1.40;;;8.40;69.40;;;3.72;97.67;96153.00;4966866;28;20429;-53
2023/01/12 01:14:26;;;;;;;3.55;1.17;;;8.40;69.40;;;3.65;97.89;96146.13;4941616;28;20454;-52
2023/01/12 01:16:54;;;;;;;2.45;0.88;;;8.40;69.30;;;3.56;98.53;96139.47;4931552;29;20031;-52
2023/01/12 01:19:20;;;;;;;4.57;1.00;;;8.30;69.10;;;3.44;98.51;96137.47;4921525;29;20182;-51
2023/01/12 01:21:46;;;;;;;4.63;1.00;;;8.30;69.10;;;3.36;99.10;96139.53;4930211;29;20109;-53
2023/01/12 01:24:13;;;;;;;3.97;1.15;;;8.20;69.00;;;3.23;99.13;96146.44;4928998;29;20023;-53
2023/01/12 01:26:41;;;;;;;7.63;1.17;;;8.10;68.80;;;3.13;99.71;96146.00;4931241;29;20110;-53
2023/01/12 01:29:08;;;;;;;3.50;1.30;;;8.00;69.50;;;3.04;100.00;96157.78;4928972;29;20150;-52
2023/01/12 01:31:34;;;;;;;6.22;1.23;;;8.00;68.90;;;3.01;100.00;96155.56;4914928;29;20059;-52
2023/01/12 01:34:01;;;;;;;5.07;1.23;;;7.90;69.00;;;2.88;100.00;96158.16;4928690;29;20027;-53
2023/01/12 01:36:27;;;;;;;6.85;1.50;;;7.80;69.00;;;2.84;100.00;96155.13;4929759;29;20034;-53
2023/01/12 01:38:53;;;;;;;4.15;1.20;;;7.80;68.90;;;2.67;100.00;96152.09;4932170;29;20042;-54
2023/01/12 01:41:30;;;;;;;4.25;0.93;;;7.70;68.80;;;2.63;100.00;96150.03;4928768;29;20594;-48
2023/01/12 01:43:58;;;;;;;6.30;1.30;;;7.60;68.80;;;2.57;100.00;96141.16;4940200;29;20032;-50
2023/01/12 01:46:54;;;;;;;5.47;1.23;;;7.50;68.90;;;2.43;100.00;96126.34;4932062;29;20118;-53
2023/01/12 01:49:48;;;;;;;4.57;1.20;;;7.40;68.90;;;2.29;100.00;96130.78;4922446;29;20069;-57
2023/01/12 01:52:35;;;;;;;8.52;1.23;;;7.30;68.90;;;2.27;100.00;96128.34;4933670;29;20030;-50
2023/01/12 01:55:32;;;;;;;3.88;1.02;;;7.10;69.00;;;2.15;100.00;96129.13;4930002;29;20041;-51
2023/01/12 01:58:14;;;;;;;7.30;1.08;;;7.00;69.10;;;2.05;100.00;96132.13;4934299;29;20039;-51
2023/01/12 02:00:43;;;;;;;4.68;1.20;;;6.90;69.20;;;2.00;100.00;96135.34;4931518;29;20796;-52
2023/01/12 02:03:11;;;;;;;6.10;1.25;;;6.90;69.30;;;1.89;100.00;96138.53;4918076;29;20035;-56
2023/01/12 02:05:45;;;;;;;7.35;1.45;;;6.80;69.70;;;1.82;100.00;96142.97;4933619;29;20531;-50
2023/01/12 02:08:51;;;;;;;9.10;1.63;;;6.70;69.40;;;1.78;100.00;96133.84;4927965;29;20293;-51
2023/01/12 02:17:23;;;;;;;5.95;1.40;;;6.50;69.80;;;1.75;100.00;96136.84;4973548;28;20156;-52
2023/01/12 02:20:19;;;;;;;4.07;1.30;;;6.50;70.40;;;1.73;100.00;96125.75;4970294;28;20393;-50
2023/01/12 02:23:32;;;;;;;3.80;1.38;;;6.50;70.30;;;1.72;100.00;96117.03;4967910;28;20432;-54
2023/01/12 02:26:17;;;;;;;4.78;1.80;;;6.50;70.40;;;1.74;100.00;96119.47;4949079;28;20023;-54
2023/01/12 02:29:31;;;;;;;10.85;1.92;;;6.50;70.60;;;1.87;100.00;96126.59;4955016;28;20034;-55
2023/01/12 02:32:32;;;;;;;8.98;1.52;;;6.50;70.80;;;1.91;100.00;96125.19;4941699;28;20029;-49
2023/01/12 02:35:23;;;;;;;9.00;1.33;;;6.60;70.90;;;1.99;100.00;96128.47;4943832;28;20053;-54
2023/01/12 02:38:25;;;;;;;8.32;1.60;;;6.70;71.10;;;2.08;100.00;96129.09;4972044;28;20037;-49
2023/01/12 02:41:12;;;;;;;4.70;1.27;;;6.70;71.10;;;2.15;100.00;96132.56;4955138;28;20055;-49
2023/01/12 02:43:41;;;;;;;5.03;1.00;;;6.80;71.20;;;2.22;100.00;96127.31;4967035;28;20026;-52
2023/01/12 02:46:30;;;;;;;4.82;1.45;;;6.80;71.10;;;2.28;100.00;96122.06;4953705;28;20500;-53
2023/01/12 02:49:13;;;;;;;5.55;1.15;;;6.90;71.00;;;2.30;100.00;96124.50;4955408;28;20034;-56
2023/01/12 02:52:11;;;;;;;12.35;1.33;;;6.90;70.90;;;2.32;100.00;96117.25;4955342;28;20030;-54
2023/01/12 02:54:45;;;;;;;10.13;1.40;;;6.90;70.70;;;2.33;100.00;96120.69;4951858;28;20046;-55
2023/01/12 02:57:15;;;;;;;4.60;1.13;;;6.90;70.70;;;2.31;100.00;96111.16;4953134;28;20018;-55
2023/01/12 02:59:46;;;;;;;3.53;1.48;;;6.90;70.60;;;2.30;100.00;96106.13;4947390;28;20018;-51
2023/01/12 03:02:20;;;;;;;5.78;1.35;;;7.00;70.60;;;2.31;100.00;96100.63;4962811;28;20080;-56
2023/01/12 03:04:47;;;;;;;6.05;1.48;;;7.00;70.40;;;2.35;100.00;96089.72;4973154;28;20029;-53
2023/01/12 03:07:53;;;;;;;11.82;1.80;;;7.00;70.40;;;2.34;100.00;96082.84;4937746;28;20540;-54
2023/01/12 03:10:57;;;;;;;8.80;1.27;;;7.00;70.40;;;2.37;100.00;96080.63;4972683;28;20556;-53
2023/01/12 03:13:28;;;;;;;8.32;1.33;;;7.00;70.40;;;2.40;100.00;96069.72;4950593;28;20496;-56
2023/01/12 03:15:57;;;;;;;7.60;1.50;;;7.00;70.50;;;2.42;100.00;96065.06;4952601;28;20133;-56
2023/01/12 03:18:34;;;;;;;4.57;1.08;;;7.10;70.60;;;2.47;100.00;96061.81;4948291;28;20122;-53
2023/01/12 03:21:29;;;;;;;6.57;1.13;;;7.10;70.50;;;2.54;100.00;96055.56;4934834;28;20136;-50
2023/01/12 03:24:13;;;;;;;3.03;1.00;;;7.20;70.60;;;2.59;100.00;96047.06;4951958;28;20022;-50
2023/01/12 03:26:49;;;;;;;3.47;0.93;;;7.20;70.50;;;2.64;100.00;96055.16;4944205;28;20355;-52
2023/01/12 03:29:26;;;;;;;5.50;1.30;;;7.30;70.50;;;2.73;100.00;96061.84;4950100;28;20026;-52
2023/01/12 03:31:54;;;;;;;10.75;1.25;;;7.30;70.40;;;2.81;99.53;96068.69;4952885;28;20089;-50
2023/01/12 03:34:20;;;;;;;5.45;1.17;;;7.40;70.40;;;2.82;99.18;96064.25;4936323;28;20026;-52
2023/01/12 03:37:39;;;;;;;3.92;1.10;;;7.40;70.20;;;2.85;99.03;96069.94;4948408;28;20031;-52
2023/01/12 03:40:25;;;;;;;2.95;1.00;;;7.40;70.10;;;2.89;98.43;96065.06;4946318;28;20706;-51
2023/01/12 03:43:34;;;;;;;8.05;1.45;;;7.40;70.00;;;2.90;98.19;96067.47;4949459;28;20037;-51
2023/01/12 03:46:26;;;;;;;5.78;0.80;;;7.50;69.90;;;2.92;98.31;96062.03;4964745;28;20037;-52
2023/01/12 03:49:19;;;;;;;3.22;1.00;;;7.50;69.90;;;2.90;98.31;96062.22;4950738;28;20032;-55
2023/01/12 03:51:49;;;;;;;6.38;1.15;;;7.50;69.80;;;2.93;98.07;96061.00;4949716;28;20370;-52
2023/01/12 03:54:19;;;;;;;6.80;1.13;;;7.50;69.70;;;2.93;97.78;96064.44;4950927;28;20035;-50
2023/01/12 03:56:49;;;;;;;9.90;1.25;;;7.50;69.60;;;2.94;97.60;96063.41;4950341;28;20085;-52
2023/01/12 03:59:15;;;;;;;7.40;1.10;;;7.60;69.80;;;2.96;97.48;96053.50;4945466;28;20473;-49
2023/01/12 04:01:42;;;;;;;3.30;0.98;;;7.60;69.60;;;2.99;97.53;96047.03;4936248;28;20509;-50
2023/01/12 04:04:08;;;;;;;3.85;1.10;;;7.60;69.50;;;3.01;97.12;96043.19;4945652;28;20036;-50
2023/01/12 04:06:33;;;;;;;3.47;1.10;;;7.60;69.40;;;3.04;96.95;96044.59;4952311;28;20027;-49
2023/01/12 04:08:59;;;;;;;4.32;1.00;;;7.70;69.50;;;3.05;97.37;96043.56;4944096;28;20034;-51
2023/01/12 04:14:10;;;;;;;3.17;1.05;;;7.70;69.30;;;3.07;96.71;96033.66;4948408;28;20048;-49
2023/01/12 04:16:35;;;;;;;8.73;1.35;;;7.80;69.30;;;3.05;97.09;96048.84;4963901;28;20524;-53
2023/01/12 04:19:01;;;;;;;6.20;1.23;;;7.70;69.10;;;3.08;96.61;96043.16;4964551;28;20550;-49
2023/01/12 04:24:11;;;;;;;6.97;1.25;;;7.70;69.00;;;3.15;95.56;96058.94;4968679;28;20037;-54
2023/01/12 04:26:37;;;;;;;8.48;1.70;;;7.70;69.00;;;3.22;95.09;96047.38;4949022;28;20022;-50
2023/01/12 04:29:03;;;;;;;7.75;1.73;;;7.80;69.00;;;3.25;95.27;96048.78;4969668;28;20025;-52
2023/01/12 04:31:29;;;;;;;5.00;1.15;;;7.80;69.00;;;3.30;95.08;96053.44;4960839;28;20597;-53
2023/01/12 04:33:55;;;;;;;7.95;1.83;;;7.90;69.00;;;3.32;94.74;96070.66;4969047;28;20192;-50
2023/01/12 04:36:21;;;;;;;8.77;1.98;;;7.90;68.90;;;3.33;94.78;96063.56;4963876;28;20034;-53
2023/01/12 04:38:47;;;;;;;5.15;0.95;;;7.90;68.80;;;3.34;94.36;96060.72;4970421;28;20033;-50
2023/01/12 04:41:12;;;;;;;5.45;1.23;;;8.00;68.70;;;3.39;94.26;96068.81;4966177;28;20034;-52
2023/01/12 04:43:41;;;;;;;5.75;1.63;;;8.00;68.70;;;3.43;93.81;96072.63;4957771;28;20380;-50
2023/01/12 04:46:09;;;;;;;5.03;1.02;;;8.00;68.60;;;3.46;92.03;96069.59;4973593;28;20029;-52
2023/01/12 04:48:42;;;;;;;3.40;0.95;;;8.10;68.50;;;3.52;92.96;96083.75;4951463;28;20661;-56
2023/01/12 04:51:08;;;;;;;5.75;1.20;;;8.10;68.40;;;3.55;92.51;96070.19;4953936;28;20034;-50
2023/01/12 04:53:34;;;;;;;4.45;1.42;;;8.10;68.40;;;3.62;91.21;96063.03;4947056;28;20061;-53
2023/01/12 04:56:07;;;;;;;4.07;1.00;;;8.20;68.30;;;3.69;89.85;96069.09;4952957;28;20038;-50
2023/01/12 04:58:34;;;;;;;7.07;1.20;;;8.20;68.10;;;3.72;89.78;96070.50;4947818;28;20026;-51
2023/01/12 05:01:17;;;;;;;4.10;1.15;;;8.30;68.00;;;3.70;89.76;96070.72;4951362;28;20034;-57
2023/01/12 05:04:03;;;;;;;7.53;1.20;;;8.30;67.80;;;3.69;90.25;96055.91;4955060;28;20038;-50
2023/01/12 05:06:29;;;;;;;2.10;1.00;;;8.30;67.80;;;3.67;90.15;96055.34;4959236;28;20034;-55
2023/01/12 05:11:41;;;;;;;3.35;1.00;;;8.30;67.50;;;3.69;90.25;96063.81;4966229;28;20240;-54
2023/01/12 05:14:07;;;;;;;2.72;1.00;;;8.30;67.40;;;3.68;89.62;96051.66;4965574;28;20954;-51
2023/01/12 05:16:33;;;;;;;3.17;1.27;;;8.40;67.40;;;3.73;90.47;96058.97;4944946;28;20121;-52
2023/01/12 05:18:59;;;;;;;6.53;1.30;;;8.40;67.30;;;3.77;90.33;96070.69;4952496;28;20045;-49
2023/01/12 05:21:25;;;;;;;8.68;1.23;;;8.40;67.30;;;3.76;90.22;96074.34;4950239;28;20099;-53
2023/01/12 05:23:52;;;;;;;6.40;1.38;;;8.40;67.20;;;3.73;90.47;96066.88;4967936;28;20377;-55
2023/01/12 05:26:19;;;;;;;3.72;1.13;;;8.40;67.10;;;3.69;91.21;96065.66;4936329;28;20030;-52
2023/01/12 05:28:50;;;;;;;6.90;1.13;;;8.40;67.10;;;3.68;91.46;96056.13;4952487;28;20018;-52
2023/01/12 05:31:18;;;;;;;4.80;1.02;;;8.40;67.00;;;3.64;91.77;96052.31;4961166;28;20077;-55
2023/01/12 05:33:45;;;;;;;6.47;1.35;;;8.30;66.90;;;3.64;91.03;96039.94;4964624;28;20072;-51
2023/01/12 05:36:15;;;;;;;4.90;1.08;;;8.40;67.00;;;3.67;90.72;96051.91;4963589;28;20081;-49
2023/01/12 05:38:42;;;;;;;5.68;1.40;;;8.30;66.90;;;3.72;90.34;96046.78;4948092;28;20018;-50
2023/01/12 05:41:14;;;;;;;6.18;1.27;;;8.40;67.00;;;3.74;90.66;96051.88;4934842;28;20022;-56
2023/01/12 05:43:51;;;;;;;7.50;1.40;;;8.40;66.90;;;3.76;88.92;96055.91;4936396;28;20026;-51
2023/01/12 05:46:38;;;;;;;4.25;1.00;;;8.40;66.80;;;3.84;87.95;96052.22;4947647;28;20460;-50
2023/01/12 05:49:05;;;;;;;6.55;1.23;;;8.40;66.70;;;3.86;88.98;96058.09;4949951;28;20045;-53
2023/01/12 05:51:31;;;;;;;6.57;1.00;;;8.40;66.80;;;3.88;87.99;96051.56;4969092;28;20100;-50
2023/01/12 05:53:57;;;;;;;7.05;1.40;;;8.50;66.70;;;3.90;87.63;96048.75;4946061;28;20028;-51
2023/01/12 05:56:27;;;;;;;7.10;1.50;;;8.50;66.50;;;3.92;87.77;96057.25;4952554;28;20049;-52
2023/01/12 05:59:00;;;;;;;6.53;1.00;;;8.50;66.40;;;3.93;87.91;96062.28;4962136;28;20113;-53
2023/01/12 06:01:29;;;;;;;3.58;1.23;;;8.60;66.40;;;3.96;87.12;96065.53;4961923;28;20580;-55
2023/01/12 06:04:00;;;;;;;6.15;1.42;;;8.60;66.30;;;3.97;87.66;96061.88;4964387;28;20022;-58
2023/01/12 06:06:30;;;;;;;4.32;1.10;;;8.60;66.10;;;3.99;86.86;96057.22;4927474;29;20018;-49
2023/01/12 06:08:58;;;;;;;5.57;1.52;;;8.60;66.00;;;3.96;87.72;96063.72;4933612;28;20034;-55
2023/01/12 06:14:09;;;;;;;5.90;1.02;;;8.60;65.90;;;3.98;87.16;96059.03;4955590;28;20060;-50
2023/01/12 06:16:42;;;;;;;4.05;0.70;;;8.60;65.90;;;4.02;86.12;96056.78;4942929;28;20029;-50
2023/01/12 06:19:11;;;;;;;3.95;1.25;;;8.60;65.60;;;4.10;85.62;96064.44;4950400;28;20096;-49
2023/01/12 06:21:39;;;;;;;5.72;1.05;;;8.60;65.50;;;4.16;85.23;96059.13;4951163;28;20385;-52
2023/01/12 06:24:06;;;;;;;5.95;1.00;;;8.70;65.60;;;4.17;85.26;96059.94;4950752;28;20376;-50
2023/01/12 06:26:31;;;;;;;4.85;1.08;;;8.70;65.50;;;4.20;84.78;96056.06;4966027;28;20026;-51
2023/01/12 06:28:58;;;;;;;7.78;1.35;;;8.70;65.40;;;4.21;85.39;96050.59;4969129;28;20026;-55
2023/01/12 06:31:26;;;;;;;5.60;1.00;;;8.80;65.40;;;4.22;84.34;96049.56;4947043;28;20027;-50
2023/01/12 06:33:52;;;;;;;7.53;1.50;;;8.80;65.20;;;4.26;83.95;96042.84;4969323;28;20025;-52
2023/01/12 06:36:18;;;;;;;4.68;1.20;;;8.80;65.10;;;4.31;83.89;96035.09;4969992;28;20026;-51
2023/01/12 06:38:44;;;;;;;4.00;1.08;;;8.90;65.00;;;4.35;82.96;96033.63;4970029;28;20038;-53
2023/01/12 06:43:59;;;;;;;5.88;1.20;;;8.90;64.70;;;4.35;82.84;96038.09;4965493;28;20069;-51
2023/01/12 06:46:27;;;;;;;3.65;1.00;;;8.90;64.60;;;4.34;82.61;96037.31;4973021;28;20033;-49
2023/01/12 06:48:58;;;;;;;5.25;0.98;;;8.90;64.40;;;4.36;82.44;96035.28;4965497;28;20022;-53
2023/01/12 06:51:25;;;;;;;5.80;1.20;;;8.90;64.20;;;4.36;81.82;96042.38;4974147;28;20815;-50
2023/01/12 06:53:53;;;;;;;7.00;1.30;;;8.90;64.10;;;4.40;81.29;96044.34;4974900;28;20113;-53
2023/01/12 06:56:20;;;;;;;3.15;0.80;;;8.90;63.90;;;4.47;81.36;96036.38;4956728;28;20116;-53
2023/01/12 06:58:46;;;;;;;5.97;1.30;;;9.00;63.80;;;4.41;81.04;96032.78;4957319;28;20088;-52
2023/01/12 07:01:12;;;;;;;6.05;1.20;;;9.00;63.80;;;4.44;81.53;96042.09;4967975;28;20054;-54
2023/01/12 07:03:41;;;;;;;2.65;0.85;;;9.00;63.60;;;4.45;81.69;96040.25;4951599;28;20103;-52
2023/01/12 07:06:07;;;;;;;5.43;1.02;;;9.00;63.60;;;4.43;81.38;96039.69;4951717;28;20084;-55
2023/01/12 07:08:34;;;;;;;3.83;1.00;;;9.00;63.50;;;4.44;81.40;96038.66;4975540;28;20113;-52
2023/01/12 07:11:06;;;;;;;7.07;1.20;;;9.00;63.50;;;4.40;81.00;96048.84;4963764;28;20042;-49
2023/01/12 07:13:34;;;;;;;7.32;1.27;;;9.00;63.30;;;4.45;80.82;96051.66;4966484;28;20116;-49
2023/01/12 07:16:01;;;;;;;9.35;1.70;;;9.00;63.20;;;4.49;80.67;96042.28;4953344;28;20513;-50
2023/01/12 07:18:29;;;;;;;4.95;0.80;;;9.10;63.20;;;4.50;80.58;96043.06;4960295;28;20582;-52
2023/01/12 07:20:55;;;;;;;7.75;0.88;;;9.10;63.20;;;4.51;81.16;96039.41;4967285;28;20033;-57
2023/01/12 07:23:22;;;;;;;5.35;1.38;;;9.10;63.10;;;4.52;80.57;96047.13;4979553;28;20033;-51
2023/01/12 07:25:48;;;;;;;6.45;1.40;;;9.10;63.00;;;4.49;80.38;96041.47;4965480;28;20038;-51
2023/01/12 07:28:14;;;;;;;6.95;1.10;;;9.10;62.80;;;4.51;79.86;96037.59;4963916;28;20485;-55
2023/01/12 07:30:43;;;;;;;7.90;1.27;;;9.20;62.80;;;4.57;79.27;96022.72;4966136;28;20026;-55
2023/01/12 07:33:13;;;;;;;5.07;1.00;;;9.20;62.60;;;4.61;78.91;96022.09;4966525;28;20105;-53
2023/01/12 07:35:41;;;;;;;4.05;1.05;;;9.20;62.40;;;4.66;80.25;96031.19;4965599;28;20029;-54
2023/01/12 07:38:10;;;;;;;5.55;1.00;;;9.30;62.40;;;4.64;79.03;96024.28;4951993;28;20038;-54
2023/01/12 07:40:43;;;;;;;3.90;1.05;;;9.30;62.30;;;4.66;78.66;96026.69;4950741;28;20034;-53
2023/01/12 07:43:10;;;;;;;2.83;1.10;;;9.40;62.10;;;4.72;77.81;96019.75;4949154;28;20026;-54
2023/01/12 07:45:36;;;;;;;5.32;1.08;;;9.40;61.90;;;4.77;77.40;96017.28;4931521;28;20031;-52
2023/01/12 07:48:03;;;;;;;7.53;1.10;;;9.40;61.80;;;4.79;77.52;96023.13;4952388;28;20100;-51
2023/01/12 07:50:29;;;;;;;7.40;1.45;;;9.50;61.60;;;4.82;77.37;96027.97;4968509;28;20191;-55
2023/01/12 07:53:02;;;;;;;8.18;1.13;;;9.50;61.50;;;4.88;77.30;96024.47;4960952;28;20580;-50
2023/01/12 07:55:30;;;;;;;4.43;1.02;;;9.50;61.40;;;4.86;76.93;96027.34;4968042;28;20412;-54
2023/01/12 07:58:02;;;;;;;3.63;0.90;;;9.60;61.30;;;4.87;76.85;96028.16;4953001;28;20393;-53
2023/01/12 08:00:37;;;;;;;7.63;0.90;;;9.60;60.90;;;4.91;76.63;96028.50;4955685;28;20029;-52
2023/01/12 08:03:12;;;;;;;3.83;1.00;;;9.70;60.90;;;4.91;76.22;96020.59;4969339;28;20764;-55
2023/01/12 08:05:41;;;;;;;4.93;1.20;;;9.70;60.80;;;4.95;75.52;96027.03;4964244;28;20018;-54
2023/01/12 08:08:08;;;;;;;10.68;1.25;;;9.80;60.60;;;5.01;76.69;96024.34;4972170;28;20018;-57
2023/01/12 08:10:36;;;;;;;3.30;1.20;;;9.80;60.60;;;5.03;75.48;96030.22;4950374;28;20033;-55
2023/01/12 08:13:02;;;;;;;2.15;0.80;;;9.90;60.60;;;5.06;74.78;96028.97;4951071;28;20036;-53
2023/01/12 08:15:43;;;;;;;6.38;1.25;;;9.90;60.30;;;5.10;76.08;96020.38;4963576;28;20054;-57
2023/01/12 08:18:24;;;;;;;2.47;1.02;;;10.00;60.10;;;5.17;75.57;96024.78;4947447;28;20034;-57
2023/01/12 08:20:56;;;;;;;7.00;1.00;;;10.10;60.10;;;5.20;75.28;96032.28;4942130;28;20027;-58
2023/01/12 08:23:38;;;;;;;4.80;1.00;;;10.20;60.00;;;5.23;74.94;96045.88;4946267;28;20114;-52
2023/01/12 08:26:17;;;;;;;5.72;1.35;;;10.20;59.60;;;5.31;74.14;96042.94;4932486;28;20042;-54
2023/01/12 08:29:07;;;;;;;3.00;1.23;;;10.30;59.50;;;5.38;74.40;96028.84;4947685;28;20085;-52
2023/01/12 08:31:36;;;;;;;6.78;1.20;;;10.40;59.50;;;5.36;73.42;96028.25;4943706;28;20035;-55
2023/01/12 08:34:02;;;;;;;6.30;0.90;;;10.40;60.00;;;5.43;74.33;96024.53;4947668;28;20042;-56
2023/01/12 08:36:32;;;;;;;8.25;1.00;;;10.40;59.30;;;5.41;74.04;96020.47;4945192;28;20030;-57
2023/01/12 08:39:00;;;;;;;2.50;0.63;;;10.50;59.10;;;5.46;74.39;96026.72;4945492;28;20022;-55
2023/01/12 08:41:32;;;;;;;5.88;1.10;;;10.50;59.00;;;5.49;72.88;96025.47;4943279;28;20059;-55
2023/01/12 08:44:09;;;;;;;8.32;1.33;;;10.50;58.90;;;5.53;73.01;96030.09;4945443;28;20417;-57
2023/01/12 08:46:51;;;;;;;6.82;1.20;;;10.60;58.80;;;5.53;72.37;96038.00;4946893;28;20073;-57
2023/01/12 08:49:24;;;;;;;4.70;1.42;;;10.60;58.60;;;5.57;73.06;96039.19;4945686;28;20466;-55
2023/01/12 08:51:50;;;;;;;3.70;1.02;;;10.60;58.60;;;5.61;72.66;96044.00;4931065;28;20105;-55
2023/01/12 08:54:19;;;;;;;2.45;0.95;;;10.70;58.50;;;5.57;71.66;96036.53;4946026;28;20409;-56
2023/01/12 08:56:46;;;;;;;3.90;1.00;;;10.70;58.20;;;5.62;71.42;96035.88;4945874;28;20031;-54
2023/01/12 08:59:12;;;;;;;5.18;1.20;;;10.70;58.10;;;5.69;72.28;96049.81;4944245;28;20501;-54
2023/01/12 09:01:41;;;;;;;1.25;0.82;;;10.80;58.00;;;5.71;72.15;96052.25;4945219;28;20033;-52
2023/01/12 09:04:10;;;;;;;7.07;1.25;;;10.80;57.80;;;5.72;72.17;96051.22;4959824;28;20508;-54
2023/01/12 09:06:41;;;;;;;2.20;0.80;;;10.90;57.80;;;5.74;71.32;96057.09;4947304;28;20541;-53
2023/01/12 09:09:13;;;;;;;5.15;1.38;;;10.90;57.60;;;5.85;71.75;96066.91;4946627;28;20560;-53
2023/01/12 09:11:42;;;;;;;4.70;1.15;;;11.00;57.50;;;5.83;71.13;96060.22;4944518;28;20030;-53
2023/01/12 09:14:12;;;;;;;3.35;0.93;;;11.00;57.40;;;5.90;71.21;96045.09;4945024;28;20054;-52
2023/01/12 09:16:39;;;;;;;3.05;1.00;;;11.10;57.30;;;5.90;70.69;96037.97;4914530;28;20027;-56
2023/01/12 09:19:06;;;;;;;5.47;1.15;;;11.20;57.20;;;5.93;71.73;96026.97;4946719;28;20030;-52
2023/01/12 09:21:37;;;;;;;4.20;1.20;;;11.20;57.20;;;5.93;71.34;96029.63;4928721;28;20149;-51
2023/01/12 09:24:04;;;;;;;6.68;1.17;;;11.20;57.00;;;5.99;71.16;96030.56;4928815;28;20023;-55
2023/01/12 09:26:40;;;;;;;4.70;1.05;;;11.30;57.00;;;6.08;70.46;96020.47;4931013;28;20069;-54
2023/01/12 09:29:08;;;;;;;3.13;1.00;;;11.40;56.90;;;6.12;70.67;96019.00;4946799;28;20041;-55
2023/01/12 09:31:42;;;;;;;5.63;1.33;;;11.50;56.90;;;6.17;70.10;96019.94;4938756;28;20033;-53
2023/01/12 09:34:08;;;;;;;4.90;1.27;;;11.60;56.60;;;6.28;70.16;96020.19;4938081;28;20023;-55
2023/01/12 09:36:38;;;;;;;6.00;1.00;;;11.70;56.50;;;6.27;69.91;96029.97;4957757;28;20034;-55
2023/01/12 09:39:14;;;;;;;2.67;0.85;;;11.80;56.20;;;6.38;70.47;96038.97;4950619;28;20062;-55
2023/01/12 09:47:55;;;;;;;2.63;0.90;;;11.90;55.90;;;6.35;68.56;96037.56;4947496;28;20033;-53
2023/01/12 09:51:35;;;;;;;5.22;1.30;;;11.90;55.40;;;6.43;68.56;96045.19;4943202;28;20022;-54
2023/01/12 09:54:05;;;;;;;2.97;1.05;;;12.00;55.50;;;6.46;68.91;96046.59;4874521;29;20028;-51
2023/01/12 09:56:51;;;;;;;1.90;0.90;;;12.00;55.30;;;6.51;68.44;96045.88;4891809;29;20043;-52
2023/01/12 09:59:41;;;;;;;4.53;1.10;;;12.10;55.10;;;6.55;69.70;96037.28;4875814;29;20042;-53
2023/01/12 10:02:13;;;;;;;4.47;1.13;;;12.20;54.80;;;6.69;69.23;96038.66;4870178;29;20027;-51
2023/01/12 10:04:40;;;;;;;4.40;0.90;;;12.30;54.90;;;6.78;68.54;96039.13;4874299;29;20055;-55
2023/01/12 10:07:17;;;;;;;4.63;0.95;;;12.40;54.90;;;6.88;68.21;96023.47;4876299;29;20071;-52
2023/01/12 10:09:44;;;;;;;5.03;1.23;;;12.50;54.70;;;6.95;67.47;96031.31;4892223;29;20028;-53
2023/01/12 10:12:33;;;;;;;5.75;1.05;;;12.60;54.70;;;6.93;67.30;96028.09;4890089;29;20032;-51
2023/01/12 10:15:45;;;;;;;3.88;1.17;;;12.60;54.20;;;6.92;67.80;96029.91;4892513;29;20052;-51
2023/01/12 10:18:35;;;;;;;5.30;0.90;;;12.70;54.70;;;6.88;67.61;96035.91;4890365;29;20043;-52
2023/01/12 10:21:10;;;;;;;6.93;1.20;;;12.60;53.90;;;6.81;67.86;96043.19;4877810;29;20032;-51
2023/01/12 10:23:36;;;;;;;4.50;1.13;;;12.60;53.60;;;6.90;68.46;96036.50;4864744;28;20031;-51
2023/01/12 10:26:27;;;;;;;3.47;1.08;;;12.60;53.60;;;6.87;67.54;96034.31;4953484;28;20023;-51
2023/01/12 10:28:55;;;;;;;6.18;1.05;;;12.70;53.20;;;6.90;67.61;96028.56;4951517;28;20049;-52
2023/01/12 10:31:25;;;;;;;4.03;1.17;;;12.60;53.40;;;6.88;67.58;96030.63;4948995;28;20073;-52
2023/01/12 10:34:10;;;;;;;5.18;1.25;;;12.70;53.10;;;6.88;67.84;96022.69;4952438;28;20031;-54
2023/01/12 10:36:48;;;;;;;6.10;1.00;;;12.70;53.00;;;6.98;67.58;96032.69;4948053;28;20038;-56
2023/01/12 10:39:38;;;;;;;5.20;1.20;;;12.70;53.10;;;6.91;67.66;96028.31;4952737;28;20027;-53
2023/01/12 10:45:11;;;;;;;8.88;1.33;;;12.70;52.90;;;6.76;68.75;96017.38;4944348;28;20504;-57
2023/01/12 10:47:42;;;;;;;8.05;1.13;;;12.70;53.00;;;6.76;70.29;96027.97;4949399;28;20035;-51
2023/01/12 10:50:43;;;;;;;3.00;1.10;;;12.60;52.80;;;6.78;68.70;96027.75;4931913;29;20031;-51
2023/01/12 10:53:19;;;;;;;4.72;1.13;;;12.60;52.90;;;6.68;69.02;96029.13;4942277;28;20393;-53
2023/01/12 10:55:46;;;;;;;4.25;0.77;;;12.60;53.00;;;6.72;69.24;96032.09;4949778;28;20046;-51
2023/01/12 10:58:32;;;;;;;6.28;0.98;;;12.50;53.10;;;6.71;68.97;96012.78;4951520;28;20470;-53
2023/01/12 11:01:04;;;;;;;3.42;0.95;;;12.50;53.00;;;6.77;69.11;96023.47;4941602;28;20030;-54
2023/01/12 11:03:36;;;;;;;3.05;0.90;;;12.60;53.10;;;6.76;69.45;96008.63;4951187;28;20415;-51
2023/01/12 11:06:32;;;;;;;5.28;1.00;;;12.60;53.10;;;6.78;68.71;96014.50;4946238;28;20427;-51
2023/01/12 11:09:26;;;;;;;9.73;1.10;;;12.60;52.90;;;6.75;68.50;95994.59;4965753;28;20023;-55
2023/01/12 11:12:18;;;;;;;4.95;1.02;;;12.60;52.80;;;6.85;69.19;95994.81;4938852;28;20023;-52
2023/01/12 11:15:18;;;;;;;3.35;0.95;;;12.70;52.80;;;6.88;68.70;95998.84;4943186;28;20119;-52
2023/01/12 11:18:07;;;;;;;4.85;1.08;;;12.70;52.50;;;6.94;69.86;95995.28;4936390;28;20050;-52
2023/01/12 11:20:59;;;;;;;5.95;1.40;;;12.80;52.60;;;6.98;67.73;95983.16;4946658;28;20042;-51
2023/01/12 11:23:53;;;;;;;5.07;0.95;;;12.90;52.50;;;7.09;67.21;95985.00;4949128;28;20535;-51
2023/01/12 11:26:45;;;;;;;2.00;0.90;;;13.10;52.70;;;7.36;66.77;95985.31;4949653;28;20019;-51
2023/01/12 11:29:50;;;;;;;3.55;0.98;;;13.30;52.00;;;7.53;65.70;95980.09;4958388;28;20022;-57
2023/01/12 11:32:50;;;;;;;1.23;0.70;;;13.50;52.00;;;7.75;65.87;95969.63;4931530;29;20030;-58
2023/01/12 11:35:43;;;;;;;3.35;0.85;;;13.90;51.80;;;7.94;64.89;95980.84;4941596;28;20054;-56